createdAt,value
2022-09-26T00:00:34.771Z,83.89
2022-09-26T00:01:38.917Z,84.19
2022-09-26T00:02:40.446Z,84.31
2022-09-26T00:03:49.584Z,83.72
2022-09-26T00:04:50.981Z,83.23
2022-09-26T00:05:52.442Z,83.16
2022-09-26T00:06:55.943Z,83.48
2022-09-26T00:07:57.350Z,83.38
2022-09-26T00:08:59.237Z,83.35
2022-09-26T00:10:00.661Z,83.70
2022-09-26T00:11:07.486Z,83.87
2022-09-26T00:12:08.927Z,83.55
2022-09-26T00:13:10.344Z,84.43
2022-09-26T00:14:18.857Z,83.91
2022-09-26T00:15:20.298Z,84.08
2022-09-26T00:16:22.288Z,83.39
2022-09-26T00:17:23.736Z,82.93
2022-09-26T00:18:25.578Z,82.75
2022-09-26T00:19:27.065Z,82.81
2022-09-26T00:20:28.481Z,83.17
2022-09-26T00:21:31.110Z,83.40
2022-09-26T00:22:32.676Z,84.12
2022-09-26T00:23:34.993Z,84.14
2022-09-26T00:24:36.535Z,84.29
2022-09-26T00:25:37.945Z,84.12
2022-09-26T00:26:39.589Z,84.28
2022-09-26T00:27:41.000Z,84.58
2022-09-26T00:28:43.068Z,84.50
2022-09-26T00:29:44.472Z,84.61
2022-09-26T00:30:45.997Z,84.16
2022-09-26T00:31:49.000Z,83.48
2022-09-26T00:32:50.335Z,84.36
2022-09-26T00:33:52.672Z,84.43
2022-09-26T00:34:54.067Z,84.57
2022-09-26T00:35:55.886Z,84.25
2022-09-26T00:36:57.296Z,84.30
2022-09-26T00:37:59.033Z,84.08
2022-09-26T00:39:00.779Z,84.49
2022-09-26T00:40:02.205Z,84.53
2022-09-26T00:41:04.471Z,85.09
2022-09-26T00:42:05.980Z,84.98
2022-09-26T00:43:42.085Z,84.85
2022-09-26T00:44:55.348Z,84.68
2022-09-26T00:46:19.810Z,84.54
2022-09-26T00:47:32.368Z,84.29
2022-09-26T00:48:36.322Z,83.66
2022-09-26T00:49:41.897Z,84.13
2022-09-26T00:50:43.874Z,84.12
2022-09-26T00:51:52.458Z,84.02
2022-09-26T00:53:01.465Z,84.49
2022-09-26T00:54:03.443Z,84.68
2022-09-26T00:55:07.432Z,84.60
2022-09-26T00:56:12.183Z,84.95
2022-09-26T00:57:18.319Z,84.79
2022-09-26T00:58:30.905Z,84.29
2022-09-26T00:59:41.873Z,84.75
2022-09-26T01:00:46.859Z,84.60
2022-09-26T01:01:49.998Z,84.62
2022-09-26T01:02:53.444Z,84.43
2022-09-26T01:03:56.111Z,83.96
2022-09-26T01:04:59.567Z,83.47
2022-09-26T01:06:01.374Z,83.63
2022-09-26T01:07:08.588Z,83.97
2022-09-26T01:08:11.907Z,83.51
2022-09-26T01:09:14.881Z,83.41
2022-09-26T01:10:16.777Z,83.57
2022-09-26T01:11:19.721Z,83.62
2022-09-26T01:12:21.268Z,83.66
2022-09-26T01:13:23.213Z,83.85
2022-09-26T01:14:24.960Z,83.60
2022-09-26T01:15:26.391Z,84.22
2022-09-26T01:16:28.156Z,83.85
2022-09-26T01:17:30.736Z,83.75
2022-09-26T01:18:32.327Z,84.28
2022-09-26T01:19:56.671Z,84.34
2022-09-26T01:21:10.128Z,84.73
2022-09-26T01:22:43.189Z,84.29
2022-09-26T01:23:44.574Z,84.99
2022-09-26T01:24:49.001Z,83.80
2022-09-26T01:26:10.574Z,84.28
2022-09-26T01:27:46.414Z,84.21
2022-09-26T01:29:25.674Z,84.63
2022-09-26T01:30:55.395Z,84.27
2022-09-26T01:32:43.245Z,84.71
2022-09-26T01:33:50.895Z,84.39
2022-09-26T01:35:04.584Z,84.23
2022-09-26T01:36:39.309Z,83.75
2022-09-26T01:37:56.212Z,83.97
2022-09-26T01:39:12.326Z,83.92
2022-09-26T01:40:24.382Z,84.54
2022-09-26T01:41:29.176Z,84.45
2022-09-26T01:42:51.964Z,84.64
2022-09-26T01:44:08.849Z,84.18
2022-09-26T01:45:18.991Z,84.41
2022-09-26T01:46:27.339Z,84.40
2022-09-26T01:47:44.271Z,84.51
2022-09-26T01:48:52.398Z,84.83
2022-09-26T01:50:03.027Z,85.11
2022-09-26T01:51:12.753Z,84.22
2022-09-26T01:52:48.395Z,84.10
2022-09-26T01:54:05.939Z,84.29
2022-09-26T01:55:10.801Z,84.35
2022-09-26T01:56:22.838Z,84.27
2022-09-26T01:57:31.745Z,84.57
2022-09-26T01:58:51.881Z,84.40
2022-09-26T01:59:58.753Z,84.71
2022-09-26T02:01:09.761Z,84.17
2022-09-26T02:02:19.445Z,84.33
2022-09-26T02:03:30.625Z,83.81
2022-09-26T02:04:39.499Z,83.79
2022-09-26T02:06:05.116Z,84.00
2022-09-26T02:07:18.041Z,84.34
2022-09-26T02:08:39.533Z,83.98
2022-09-26T02:09:45.037Z,83.54
2022-09-26T02:10:52.955Z,83.36
2022-09-26T02:11:59.028Z,83.56
2022-09-26T02:13:09.390Z,83.34
2022-09-26T02:14:17.584Z,83.57
2022-09-26T02:15:21.449Z,83.50
2022-09-26T02:16:32.125Z,83.08
2022-09-26T02:17:40.782Z,82.83
2022-09-26T02:18:47.860Z,82.89
2022-09-26T02:20:02.950Z,83.78
2022-09-26T02:21:20.780Z,83.53
2022-09-26T02:22:24.166Z,83.58
2022-09-26T02:23:25.975Z,83.64
2022-09-26T02:24:28.823Z,83.61
2022-09-26T02:25:31.145Z,84.13
2022-09-26T02:26:33.722Z,83.68
2022-09-26T02:27:35.388Z,84.12
2022-09-26T02:28:37.208Z,83.64
2022-09-26T02:29:39.370Z,83.33
2022-09-26T02:30:43.453Z,83.54
2022-09-26T02:31:51.795Z,83.31
2022-09-26T02:32:53.581Z,83.52
2022-09-26T02:33:55.484Z,83.99
2022-09-26T02:34:57.759Z,84.29
2022-09-26T02:35:59.559Z,84.10
2022-09-26T02:37:01.320Z,84.28
2022-09-26T02:38:03.440Z,84.25
2022-09-26T02:39:05.250Z,83.92
2022-09-26T02:40:07.501Z,84.00
2022-09-26T02:41:13.193Z,84.10
2022-09-26T02:42:22.254Z,83.85
2022-09-26T02:43:42.831Z,84.02
2022-09-26T02:45:02.607Z,83.80
2022-09-26T02:46:41.319Z,84.21
2022-09-26T02:48:13.199Z,84.34
2022-09-26T02:49:29.327Z,84.23
2022-09-26T02:51:07.761Z,84.17
2022-09-26T02:52:34.159Z,84.32
2022-09-26T02:53:54.975Z,84.17
2022-09-26T02:55:35.485Z,84.24
2022-09-26T02:56:58.772Z,83.57
2022-09-26T02:58:16.418Z,83.19
2022-09-26T02:59:35.285Z,84.17
2022-09-26T03:01:02.501Z,84.28
2022-09-26T03:02:15.803Z,84.01
2022-09-26T03:03:32.990Z,83.74
2022-09-26T03:05:00.611Z,83.84
2022-09-26T03:06:05.966Z,83.82
2022-09-26T03:07:11.988Z,84.20
2022-09-26T03:08:19.911Z,84.39
2022-09-26T03:09:24.311Z,84.01
2022-09-26T03:10:27.415Z,83.77
2022-09-26T03:11:30.364Z,83.75
2022-09-26T03:12:32.930Z,83.63
2022-09-26T03:13:37.619Z,83.93
2022-09-26T03:14:41.578Z,83.92
2022-09-26T03:15:48.686Z,84.46
2022-09-26T03:16:51.631Z,83.88
2022-09-26T03:17:55.057Z,84.30
2022-09-26T03:19:01.359Z,83.42
2022-09-26T03:20:12.087Z,82.75
2022-09-26T03:21:14.912Z,82.42
2022-09-26T03:22:17.022Z,82.45
2022-09-26T03:23:22.312Z,83.00
2022-09-26T03:24:24.819Z,83.04
2022-09-26T03:25:27.979Z,82.56
2022-09-26T03:26:31.145Z,83.02
2022-09-26T03:27:35.245Z,83.16
2022-09-26T03:28:38.051Z,82.91
2022-09-26T03:29:40.143Z,82.67
2022-09-26T03:30:41.576Z,82.51
2022-09-26T03:31:45.038Z,82.95
2022-09-26T03:32:46.950Z,83.38
2022-09-26T03:33:49.177Z,83.37
2022-09-26T03:34:51.197Z,83.48
2022-09-26T03:35:52.908Z,83.25
2022-09-26T03:36:54.320Z,83.61
2022-09-26T03:37:55.969Z,83.57
2022-09-26T03:38:57.701Z,82.56
2022-09-26T03:39:59.105Z,82.90
2022-09-26T03:41:00.621Z,83.02
2022-09-26T03:42:02.688Z,82.22
2022-09-26T03:43:04.163Z,82.59
2022-09-26T03:44:05.931Z,82.10
2022-09-26T03:45:12.985Z,81.77
2022-09-26T03:46:15.898Z,81.74
2022-09-26T03:47:18.155Z,81.26
2022-09-26T03:48:19.604Z,81.93
2022-09-26T03:49:21.523Z,81.79
2022-09-26T03:50:23.501Z,82.09
2022-09-26T03:51:25.063Z,82.36
2022-09-26T03:52:27.018Z,82.22
2022-09-26T03:53:30.577Z,81.74
2022-09-26T03:54:32.323Z,82.12
2022-09-26T03:55:33.758Z,82.26
2022-09-26T03:56:35.175Z,81.69
2022-09-26T03:57:36.630Z,82.43
2022-09-26T03:58:39.003Z,82.17
2022-09-26T03:59:40.749Z,82.24
2022-09-26T04:00:42.229Z,82.01
2022-09-26T04:01:44.330Z,82.71
2022-09-26T04:02:45.862Z,82.44
2022-09-26T04:03:50.826Z,83.08
2022-09-26T04:04:52.756Z,82.36
2022-09-26T04:05:54.178Z,82.39
2022-09-26T04:06:55.639Z,82.43
2022-09-26T04:07:59.112Z,82.86
2022-09-26T04:09:00.556Z,82.71
2022-09-26T04:10:02.779Z,82.86
2022-09-26T04:11:06.871Z,82.59
2022-09-26T04:12:08.374Z,83.16
2022-09-26T04:13:09.775Z,83.16
2022-09-26T04:14:11.340Z,82.78
2022-09-26T04:15:13.105Z,82.42
2022-09-26T04:16:15.103Z,82.81
2022-09-26T04:17:16.821Z,83.23
2022-09-26T04:18:18.312Z,83.36
2022-09-26T04:19:19.805Z,82.75
2022-09-26T04:20:21.608Z,82.62
2022-09-26T04:21:23.680Z,82.17
2022-09-26T04:22:25.648Z,82.58
2022-09-26T04:23:28.453Z,82.21
2022-09-26T04:24:30.636Z,82.61
2022-09-26T04:25:36.975Z,82.79
2022-09-26T04:26:40.447Z,83.25
2022-09-26T04:27:41.903Z,82.99
2022-09-26T04:28:43.930Z,82.92
2022-09-26T04:29:45.899Z,83.02
2022-09-26T04:30:47.381Z,83.00
2022-09-26T04:31:51.344Z,83.37
2022-09-26T04:32:52.889Z,83.51
2022-09-26T04:33:57.498Z,83.42
2022-09-26T04:34:58.948Z,83.54
2022-09-26T04:36:01.913Z,83.39
2022-09-26T04:37:03.250Z,83.48
2022-09-26T04:38:04.793Z,83.68
2022-09-26T04:39:06.970Z,84.16
2022-09-26T04:40:10.624Z,83.35
2022-09-26T04:41:13.242Z,83.10
2022-09-26T04:42:14.720Z,83.07
2022-09-26T04:43:16.128Z,82.81
2022-09-26T04:44:18.214Z,82.46
2022-09-26T04:45:19.701Z,82.94
2022-09-26T04:46:28.238Z,82.65
2022-09-26T04:47:32.519Z,82.27
2022-09-26T04:48:34.588Z,81.91
2022-09-26T04:49:36.626Z,82.25
2022-09-26T04:50:38.085Z,82.40
2022-09-26T04:51:39.696Z,82.81
2022-09-26T04:52:41.108Z,83.10
2022-09-26T04:53:43.715Z,83.63
2022-09-26T04:54:45.517Z,83.86
2022-09-26T04:55:47.997Z,83.19
2022-09-26T04:56:49.571Z,83.44
2022-09-26T04:57:51.115Z,82.78
2022-09-26T04:58:55.545Z,83.09
2022-09-26T04:59:57.380Z,83.06
2022-09-26T05:01:07.064Z,83.33
2022-09-26T05:02:08.642Z,82.96
2022-09-26T05:03:10.668Z,83.26
2022-09-26T05:04:12.454Z,83.82
2022-09-26T05:05:14.523Z,83.75
2022-09-26T05:06:17.625Z,83.72
2022-09-26T05:07:19.508Z,83.32
2022-09-26T05:08:21.076Z,82.84
2022-09-26T05:09:22.489Z,82.70
2022-09-26T05:10:24.379Z,82.30
2022-09-26T05:11:26.024Z,82.32
2022-09-26T05:12:27.461Z,83.15
2022-09-26T05:13:29.337Z,83.48
2022-09-26T05:14:31.223Z,83.42
2022-09-26T05:15:33.221Z,83.71
2022-09-26T05:16:34.855Z,82.98
2022-09-26T05:17:37.641Z,83.48
2022-09-26T05:18:39.512Z,83.73
2022-09-26T05:19:43.055Z,83.15
2022-09-26T05:20:48.288Z,83.79
2022-09-26T05:21:49.702Z,83.92
2022-09-26T05:22:51.183Z,83.51
2022-09-26T05:24:11.176Z,83.36
2022-09-26T05:25:30.890Z,83.21
2022-09-26T05:26:42.092Z,83.64
2022-09-26T05:27:43.758Z,83.00
2022-09-26T05:28:49.928Z,83.30
2022-09-26T05:29:57.342Z,83.00
2022-09-26T05:30:59.447Z,83.32
2022-09-26T05:32:01.499Z,83.14
2022-09-26T05:33:03.164Z,83.34
2022-09-26T05:34:18.459Z,83.42
2022-09-26T05:35:23.530Z,83.41
2022-09-26T05:36:27.385Z,83.23
2022-09-26T05:37:28.813Z,83.38
2022-09-26T05:38:30.208Z,83.59
2022-09-26T05:39:50.364Z,83.64
2022-09-26T05:40:56.734Z,83.41
2022-09-26T05:41:59.358Z,83.38
2022-09-26T05:43:04.275Z,82.80
2022-09-26T05:44:06.018Z,82.03
2022-09-26T05:45:08.793Z,82.55
2022-09-26T05:46:11.857Z,83.02
2022-09-26T05:47:13.481Z,82.94
2022-09-26T05:48:17.176Z,82.75
2022-09-26T05:49:19.017Z,82.99
2022-09-26T05:50:22.361Z,83.25
2022-09-26T05:51:24.471Z,82.67
2022-09-26T05:52:28.477Z,82.46
2022-09-26T05:53:31.287Z,81.61
2022-09-26T05:54:32.851Z,81.54
2022-09-26T05:55:37.254Z,80.99
2022-09-26T05:56:44.643Z,81.58
2022-09-26T05:57:54.074Z,81.86
2022-09-26T05:58:55.514Z,81.72
2022-09-26T05:59:57.271Z,80.58
2022-09-26T06:01:10.158Z,80.51
2022-09-26T06:02:14.319Z,80.86
2022-09-26T06:03:19.542Z,81.58
2022-09-26T06:04:21.410Z,81.72
2022-09-26T06:05:24.471Z,81.81
2022-09-26T06:06:26.197Z,82.12
2022-09-26T06:07:27.612Z,82.37
2022-09-26T06:08:29.137Z,81.48
2022-09-26T06:09:31.823Z,81.51
2022-09-26T06:10:33.313Z,81.23
2022-09-26T06:11:35.362Z,81.26
2022-09-26T06:12:38.122Z,80.79
2022-09-26T06:13:41.196Z,80.70
2022-09-26T06:14:47.080Z,80.01
2022-09-26T06:15:49.984Z,80.80
2022-09-26T06:16:51.443Z,80.61
2022-09-26T06:18:01.788Z,80.34
2022-09-26T06:19:03.529Z,79.03
2022-09-26T06:20:06.101Z,79.42
2022-09-26T06:21:09.716Z,79.18
2022-09-26T06:22:11.345Z,79.12
2022-09-26T06:23:13.045Z,77.73
2022-09-26T06:24:14.521Z,77.81
2022-09-26T06:25:16.435Z,77.48
2022-09-26T06:26:23.576Z,77.10
2022-09-26T06:27:25.464Z,76.56
2022-09-26T06:28:27.618Z,76.82
2022-09-26T06:29:29.880Z,76.45
2022-09-26T06:30:31.428Z,76.42
2022-09-26T06:31:33.519Z,75.93
2022-09-26T06:32:36.184Z,76.74
2022-09-26T06:33:37.656Z,76.78
2022-09-26T06:34:39.394Z,76.65
2022-09-26T06:35:40.819Z,76.37
2022-09-26T06:36:42.770Z,75.15
2022-09-26T06:37:48.306Z,75.48
2022-09-26T06:38:50.066Z,75.22
2022-09-26T06:39:54.682Z,75.10
2022-09-26T06:41:00.201Z,75.72
2022-09-26T06:42:03.075Z,75.23
2022-09-26T06:43:04.779Z,75.73
2022-09-26T06:44:06.261Z,75.62
2022-09-26T06:45:09.944Z,75.15
2022-09-26T06:46:12.772Z,73.73
2022-09-26T06:47:14.374Z,74.48
2022-09-26T06:48:20.985Z,74.61
2022-09-26T06:49:25.382Z,74.84
2022-09-26T06:50:27.028Z,75.90
2022-09-26T06:51:28.697Z,76.25
2022-09-26T06:52:34.027Z,76.56
2022-09-26T06:53:35.451Z,75.45
2022-09-26T06:54:36.949Z,75.27
2022-09-26T06:55:38.415Z,75.86
2022-09-26T06:56:39.878Z,76.32
2022-09-26T06:57:42.945Z,75.56
2022-09-26T06:58:45.341Z,75.12
2022-09-26T06:59:47.241Z,74.62
2022-09-26T07:00:48.904Z,76.27
2022-09-26T07:01:50.645Z,76.79
2022-09-26T07:02:54.445Z,77.30
2022-09-26T07:03:55.906Z,77.63
2022-09-26T07:04:57.356Z,77.43
2022-09-26T07:05:59.133Z,78.06
2022-09-26T07:07:00.537Z,78.01
2022-09-26T07:08:02.921Z,77.91
2022-09-26T07:09:08.604Z,77.37
2022-09-26T07:10:15.750Z,77.08
2022-09-26T07:11:46.248Z,78.22
2022-09-26T07:12:40.838Z,77.58
2022-09-26T07:13:42.366Z,77.06
2022-09-26T07:14:43.960Z,76.65
2022-09-26T07:15:46.331Z,76.14
2022-09-26T07:16:52.003Z,75.94
2022-09-26T07:17:53.590Z,76.20
2022-09-26T07:18:55.744Z,76.90
2022-09-26T07:19:57.283Z,76.32
2022-09-26T07:20:58.767Z,76.20
2022-09-26T07:22:00.228Z,76.76
2022-09-26T07:23:03.168Z,78.17
2022-09-26T07:24:04.660Z,78.52
2022-09-26T07:25:07.146Z,78.40
2022-09-26T07:26:08.561Z,77.58
2022-09-26T07:27:10.398Z,77.80
2022-09-26T07:28:12.085Z,77.62
2022-09-26T07:29:13.583Z,77.21
2022-09-26T07:30:15.209Z,76.80
2022-09-26T07:31:16.772Z,77.75
2022-09-26T07:32:18.293Z,76.30
2022-09-26T07:33:20.038Z,75.84
2022-09-26T07:34:24.974Z,74.78
2022-09-26T07:35:27.694Z,71.95
2022-09-26T07:36:29.219Z,68.33
2022-09-26T07:37:31.947Z,63.48
2022-09-26T07:38:33.372Z,58.09
2022-09-26T07:39:34.890Z,54.44
2022-09-26T07:40:36.387Z,50.71
2022-09-26T07:41:37.912Z,47.84
2022-09-26T07:42:39.631Z,49.39
2022-09-26T07:45:27.797Z,45.79
2022-09-26T07:46:43.696Z,40.46
2022-09-26T07:48:03.821Z,37.80
2022-09-26T07:49:23.656Z,35.91
2022-09-26T07:50:25.542Z,32.89
2022-09-26T07:51:27.092Z,33.02
2022-09-26T07:52:29.221Z,32.38
2022-09-26T07:53:30.750Z,31.24
2022-09-26T07:54:32.273Z,30.98
2022-09-26T07:55:53.741Z,31.48
2022-09-26T07:56:55.254Z,32.57
2022-09-26T07:57:57.967Z,34.17
2022-09-26T07:58:59.307Z,35.34
2022-09-26T08:00:22.495Z,37.36
2022-09-26T08:01:31.305Z,39.44
2022-09-26T08:02:35.032Z,41.96
2022-09-26T08:03:50.416Z,44.60
2022-09-26T08:04:57.622Z,45.71
2022-09-26T08:06:03.388Z,47.51
2022-09-26T08:07:04.948Z,50.54
2022-09-26T08:08:06.466Z,52.42
2022-09-26T08:09:08.062Z,53.44
2022-09-26T08:10:19.955Z,54.53
2022-09-26T08:11:23.496Z,53.94
2022-09-26T08:12:27.071Z,53.30
2022-09-26T08:13:30.114Z,50.25
2022-09-26T08:14:31.554Z,49.43
2022-09-26T08:15:33.040Z,48.58
2022-09-26T08:16:34.610Z,47.47
2022-09-26T08:17:36.190Z,44.11
2022-09-26T08:18:37.880Z,41.91
2022-09-26T08:19:39.330Z,42.97
2022-09-26T08:20:40.811Z,44.58
2022-09-26T08:21:42.297Z,46.44
2022-09-26T08:22:43.925Z,46.98
2022-09-26T08:23:46.979Z,48.52
2022-09-26T08:24:50.661Z,51.69
2022-09-26T08:25:52.098Z,53.91
2022-09-26T08:26:56.676Z,56.87
2022-09-26T08:27:59.558Z,58.22
2022-09-26T08:29:02.122Z,58.31
2022-09-26T08:30:04.446Z,58.35
2022-09-26T08:31:07.229Z,58.94
2022-09-26T08:32:08.728Z,61.07
2022-09-26T08:33:15.339Z,62.33
2022-09-26T08:34:21.321Z,62.52
2022-09-26T08:35:26.875Z,63.51
2022-09-26T08:36:28.374Z,63.82
2022-09-26T08:37:31.053Z,63.75
2022-09-26T08:38:33.472Z,64.98
2022-09-26T08:39:34.967Z,64.51
2022-09-26T08:40:49.643Z,65.02
2022-09-26T08:41:58.306Z,63.31
2022-09-26T08:43:31.775Z,62.64
2022-09-26T08:44:53.042Z,62.64
2022-09-26T08:46:34.999Z,63.20
2022-09-26T08:47:46.620Z,62.92
2022-09-26T08:49:12.724Z,64.09
2022-09-26T08:50:32.778Z,64.87
2022-09-26T08:51:40.663Z,66.88
2022-09-26T08:52:59.106Z,66.89
2022-09-26T08:54:15.967Z,68.17
2022-09-26T08:55:21.851Z,67.34
2022-09-26T08:56:31.973Z,65.96
2022-09-26T08:57:45.207Z,65.39
2022-09-26T08:58:52.310Z,65.53
2022-09-26T08:59:54.507Z,63.90
2022-09-26T09:01:00.793Z,63.06
2022-09-26T09:02:19.028Z,62.74
2022-09-26T09:03:32.959Z,62.73
2022-09-26T09:04:44.482Z,63.22
2022-09-26T09:05:50.237Z,63.84
2022-09-26T09:07:11.078Z,63.83
2022-09-26T09:08:22.167Z,63.42
2022-09-26T09:09:23.717Z,63.46
2022-09-26T09:10:55.540Z,63.38
2022-09-26T09:12:24.807Z,63.23
2022-09-26T09:13:30.749Z,59.37
2022-09-26T09:14:57.960Z,59.56
2022-09-26T09:16:21.811Z,57.89
2022-09-26T09:17:43.024Z,56.20
2022-09-26T09:19:00.429Z,56.70
2022-09-26T09:20:26.571Z,56.95
2022-09-26T09:21:43.574Z,58.69
2022-09-26T09:22:50.940Z,57.90
2022-09-26T09:24:18.832Z,58.40
2022-09-26T09:25:25.182Z,59.75
2022-09-26T09:28:33.674Z,61.97
2022-09-26T09:29:56.862Z,61.40
2022-09-26T09:31:11.415Z,60.93
2022-09-26T09:32:19.595Z,60.41
2022-09-26T09:33:39.218Z,60.41
2022-09-26T09:34:44.459Z,61.22
2022-09-26T09:35:48.893Z,61.63
2022-09-26T09:36:58.652Z,61.42
2022-09-26T09:38:01.564Z,60.45
2022-09-26T09:39:05.006Z,60.54
2022-09-26T09:40:16.570Z,60.59
2022-09-26T09:41:19.827Z,60.42
2022-09-26T09:42:30.268Z,61.07
2022-09-26T09:43:45.111Z,60.23
2022-09-26T09:44:50.464Z,61.04
2022-09-26T09:45:55.388Z,62.36
2022-09-26T09:46:57.157Z,61.23
2022-09-26T09:47:58.862Z,61.30
2022-09-26T09:49:09.451Z,61.16
2022-09-26T09:50:38.409Z,60.31
2022-09-26T09:52:26.643Z,60.02
2022-09-26T09:53:45.793Z,61.88
2022-09-26T09:55:16.556Z,62.90
2022-09-26T09:56:55.636Z,61.10
2022-09-26T09:58:15.732Z,61.57
2022-09-26T09:59:47.678Z,61.46
2022-09-26T10:01:09.847Z,60.72
2022-09-26T10:02:31.964Z,60.67
2022-09-26T10:03:39.949Z,61.71
2022-09-26T10:04:49.994Z,58.88
2022-09-26T10:05:57.650Z,57.69
2022-09-26T10:06:59.847Z,58.30
2022-09-26T10:08:03.079Z,58.95
2022-09-26T10:09:39.608Z,58.59
2022-09-26T10:10:49.754Z,58.67
2022-09-26T10:11:55.057Z,57.61
2022-09-26T10:12:57.175Z,57.55
2022-09-26T10:14:07.486Z,57.99
2022-09-26T10:15:19.756Z,58.26
2022-09-26T10:16:21.808Z,59.54
2022-09-26T10:17:24.070Z,59.42
2022-09-26T10:18:27.098Z,58.84
2022-09-26T10:19:37.471Z,57.80
2022-09-26T10:20:52.933Z,57.70
2022-09-26T10:21:54.506Z,58.47
2022-09-26T10:22:56.052Z,59.43
2022-09-26T10:23:58.899Z,60.07
2022-09-26T10:25:02.119Z,59.35
2022-09-26T10:26:09.094Z,59.21
2022-09-26T10:27:25.840Z,58.61
2022-09-26T10:28:42.841Z,58.90
2022-09-26T10:29:45.309Z,54.71
2022-09-26T10:30:50.044Z,53.31
2022-09-26T10:31:57.194Z,52.41
2022-09-26T10:33:00.748Z,52.65
2022-09-26T10:34:19.144Z,52.36
2022-09-26T10:35:26.756Z,52.12
2022-09-26T10:36:32.098Z,52.12
2022-09-26T10:37:36.902Z,53.42
2022-09-26T10:39:10.008Z,53.65
2022-09-26T10:40:43.750Z,53.80
2022-09-26T10:41:46.880Z,53.56
2022-09-26T10:42:48.408Z,54.02
2022-09-26T10:43:55.171Z,53.19
2022-09-26T10:44:58.428Z,53.54
2022-09-26T10:46:03.353Z,53.31
2022-09-26T10:47:10.632Z,53.12
2022-09-26T10:48:12.832Z,52.92
2022-09-26T10:49:15.825Z,53.30
2022-09-26T10:50:24.811Z,54.43
2022-09-26T10:51:45.008Z,54.42
2022-09-26T10:52:56.030Z,54.05
2022-09-26T10:54:15.020Z,53.86
2022-09-26T10:55:31.735Z,54.52
2022-09-26T10:56:43.357Z,55.22
2022-09-26T10:57:53.868Z,55.80
2022-09-26T10:58:59.886Z,54.84
2022-09-26T11:00:02.561Z,55.51
2022-09-26T11:01:04.292Z,57.56
2022-09-26T11:02:06.248Z,57.85
2022-09-26T11:03:20.223Z,58.02
2022-09-26T11:04:44.859Z,56.76
2022-09-26T11:06:00.313Z,57.02
2022-09-26T11:07:02.127Z,55.89
2022-09-26T11:08:07.530Z,54.68
2022-09-26T11:09:11.124Z,53.34
2022-09-26T11:10:17.059Z,52.77
2022-09-26T11:11:21.255Z,52.21
2022-09-26T11:12:28.159Z,52.57
2022-09-26T11:13:39.107Z,51.12
2022-09-26T11:14:45.680Z,51.70
2022-09-26T11:16:08.057Z,51.93
2022-09-26T11:17:09.628Z,51.80
2022-09-26T11:18:27.181Z,52.27
2022-09-26T11:19:35.388Z,52.68
2022-09-26T11:20:55.123Z,53.02
2022-09-26T11:22:32.837Z,52.75
2022-09-26T11:23:52.531Z,53.07
2022-09-26T11:25:43.382Z,53.27
2022-09-26T11:27:19.558Z,54.43
2022-09-26T11:28:31.032Z,54.13
2022-09-26T11:29:48.997Z,53.94
2022-09-26T11:30:57.052Z,54.40
2022-09-26T11:32:00.409Z,54.19
2022-09-26T11:33:08.601Z,54.83
2022-09-26T11:34:17.725Z,54.48
2022-09-26T11:35:43.991Z,54.65
2022-09-26T11:37:31.090Z,55.28
2022-09-26T11:38:39.209Z,54.03
2022-09-26T11:39:52.100Z,54.25
2022-09-26T11:41:36.878Z,54.34
2022-09-26T11:42:59.604Z,54.21
2022-09-26T11:44:06.871Z,54.38
2022-09-26T11:45:24.904Z,54.84
2022-09-26T11:46:47.503Z,55.30
2022-09-26T11:48:12.882Z,55.01
2022-09-26T11:49:35.824Z,55.28
2022-09-26T11:51:14.865Z,54.74
2022-09-26T11:52:44.379Z,55.10
2022-09-26T11:54:20.369Z,55.37
2022-09-26T11:55:37.771Z,55.47
2022-09-26T11:56:49.928Z,53.49
2022-09-26T11:58:04.347Z,54.38
2022-09-26T11:59:39.153Z,55.17
2022-09-26T12:01:10.353Z,55.49
2022-09-26T12:02:38.654Z,55.24
2022-09-26T12:04:14.443Z,55.91
2022-09-26T12:05:50.333Z,55.65
2022-09-26T12:07:08.853Z,53.73
2022-09-26T12:08:22.352Z,53.41
2022-09-26T12:09:42.249Z,53.73
2022-09-26T12:10:54.633Z,53.59
2022-09-26T12:12:03.194Z,53.65
2022-09-26T12:13:35.343Z,52.97
2022-09-26T12:15:02.452Z,53.74
2022-09-26T12:16:16.062Z,54.05
2022-09-26T12:17:36.617Z,53.59
2022-09-26T12:19:05.173Z,54.06
2022-09-26T12:20:28.029Z,55.13
2022-09-26T12:22:04.568Z,55.40
2022-09-26T12:23:34.052Z,55.93
2022-09-26T12:24:54.312Z,56.09
2022-09-26T12:26:17.062Z,56.01
2022-09-26T12:27:53.208Z,56.11
2022-09-26T12:29:05.126Z,55.74
2022-09-26T12:30:25.833Z,55.87
2022-09-26T12:31:39.206Z,54.97
2022-09-26T12:32:51.519Z,55.78
2022-09-26T12:34:13.757Z,56.09
2022-09-26T12:35:21.064Z,54.28
2022-09-26T12:36:54.805Z,54.67
2022-09-26T12:38:35.218Z,53.57
2022-09-26T12:39:57.364Z,52.68
2022-09-26T12:41:14.354Z,51.47
2022-09-26T12:42:37.983Z,51.87
2022-09-26T12:44:15.333Z,51.43
2022-09-26T12:45:32.331Z,50.31
2022-09-26T12:47:05.330Z,51.76
2022-09-26T12:48:32.567Z,51.44
2022-09-26T12:50:01.949Z,50.75
2022-09-26T12:51:45.131Z,53.17
2022-09-26T12:53:24.650Z,53.61
2022-09-26T12:55:14.475Z,52.79
2022-09-26T12:56:38.310Z,52.91
2022-09-26T12:57:51.764Z,52.86
2022-09-26T12:59:21.243Z,53.02
2022-09-26T13:00:23.250Z,53.41
2022-09-26T13:01:50.125Z,54.23
2022-09-26T13:03:16.665Z,54.62
2022-09-26T13:04:55.798Z,55.41
2022-09-26T13:06:18.557Z,54.30
2022-09-26T13:07:49.284Z,54.50
2022-09-26T13:09:06.733Z,54.53
2022-09-26T13:10:24.027Z,54.24
2022-09-26T13:11:59.560Z,56.43
2022-09-26T13:13:18.460Z,54.96
2022-09-26T13:14:39.505Z,54.81
2022-09-26T13:16:04.814Z,54.91
2022-09-26T13:17:16.583Z,55.49
2022-09-26T13:18:26.706Z,53.40
2022-09-26T13:19:44.887Z,53.28
2022-09-26T13:20:51.845Z,53.21
2022-09-26T13:22:00.212Z,53.34
2022-09-26T13:23:20.675Z,52.93
2022-09-26T13:24:28.468Z,53.64
2022-09-26T13:25:37.280Z,53.47
2022-09-26T13:26:48.218Z,52.86
2022-09-26T13:27:52.761Z,51.66
2022-09-26T13:29:24.440Z,52.02
2022-09-26T13:30:36.168Z,51.46
2022-09-26T13:31:46.219Z,50.84
2022-09-26T13:33:06.056Z,50.17
2022-09-26T13:34:16.941Z,51.99
2022-09-26T13:35:24.464Z,50.64
2022-09-26T13:36:28.195Z,49.87
2022-09-26T13:38:10.477Z,49.90
2022-09-26T13:39:33.318Z,49.46
2022-09-26T13:40:39.350Z,49.16
2022-09-26T13:42:01.378Z,51.17
2022-09-26T13:43:21.616Z,51.31
2022-09-26T13:44:49.658Z,51.71
2022-09-26T13:46:00.216Z,51.07
2022-09-26T13:47:20.349Z,52.35
2022-09-26T13:48:38.691Z,52.21
2022-09-26T13:49:51.755Z,52.38
2022-09-26T13:51:18.341Z,52.76
2022-09-26T13:52:26.638Z,52.35
2022-09-26T13:53:28.952Z,51.91
2022-09-26T13:55:00.462Z,51.49
2022-09-26T13:56:30.430Z,51.86
2022-09-26T13:57:31.963Z,52.55
2022-09-26T13:58:39.682Z,52.67
2022-09-26T13:59:52.559Z,51.04
2022-09-26T14:00:54.482Z,51.44
2022-09-26T14:02:24.567Z,51.77
2022-09-26T14:03:26.092Z,51.75
2022-09-26T14:04:35.936Z,52.85
2022-09-26T14:05:49.866Z,51.94
2022-09-26T14:07:28.038Z,50.60
2022-09-26T14:08:54.849Z,50.06
2022-09-26T14:10:02.122Z,51.16
2022-09-26T14:11:14.763Z,52.08
2022-09-26T14:12:31.272Z,50.97
2022-09-26T14:13:36.540Z,51.59
2022-09-26T14:14:43.427Z,51.73
2022-09-26T14:15:48.087Z,51.97
2022-09-26T14:17:01.585Z,53.03
2022-09-26T14:18:31.984Z,53.20
2022-09-26T14:19:46.472Z,52.96
2022-09-26T14:20:59.154Z,52.89
2022-09-26T14:22:05.711Z,53.12
2022-09-26T14:23:53.678Z,52.46
2022-09-26T14:24:58.255Z,52.08
2022-09-26T14:26:06.966Z,52.85
2022-09-26T14:27:11.385Z,53.79
2022-09-26T14:28:33.353Z,53.53
2022-09-26T14:29:44.619Z,52.70
2022-09-26T14:31:17.173Z,51.85
2022-09-26T14:32:36.035Z,51.35
2022-09-26T14:33:38.481Z,50.78
2022-09-26T14:34:45.691Z,51.23
2022-09-26T14:35:48.576Z,51.30
2022-09-26T14:36:52.025Z,51.22
2022-09-26T14:38:00.841Z,51.10
2022-09-26T14:39:05.049Z,50.33
2022-09-26T14:40:19.360Z,50.31
2022-09-26T14:41:22.528Z,50.52
2022-09-26T14:42:27.568Z,51.13
2022-09-26T14:43:30.297Z,50.29
2022-09-26T14:44:36.951Z,49.33
2022-09-26T14:45:38.686Z,48.42
2022-09-26T14:46:41.824Z,48.62
2022-09-26T14:47:55.100Z,49.07
2022-09-26T14:49:05.323Z,46.61
2022-09-26T14:50:16.122Z,46.04
2022-09-26T14:51:19.242Z,45.84
2022-09-26T14:52:21.111Z,45.42
2022-09-26T14:53:29.613Z,46.78
2022-09-26T14:54:40.821Z,45.88
2022-09-26T14:55:55.370Z,44.65
2022-09-26T14:57:03.655Z,44.21
2022-09-26T14:58:30.790Z,43.61